createdAt,value
2023-02-27T00:00:22.263Z,100287.00
2023-02-27T00:03:25.011Z,100290.53
2023-02-27T00:06:28.416Z,100289.28
2023-02-27T00:09:31.270Z,100298.37
2023-02-27T00:12:38.029Z,100309.13
2023-02-27T00:15:41.103Z,100311.78
2023-02-27T00:18:43.621Z,100315.09
2023-02-27T00:21:46.680Z,100318.59
2023-02-27T00:24:49.055Z,100321.94
2023-02-27T00:27:52.992Z,100322.22
2023-02-27T00:30:55.833Z,100331.53
2023-02-27T00:33:59.018Z,100334.25
2023-02-27T00:37:01.480Z,100330.88
2023-02-27T00:40:08.024Z,100327.12
2023-02-27T00:43:10.479Z,100331.75
2023-02-27T00:46:13.452Z,100333.66
2023-02-27T00:49:15.891Z,100334.69
2023-02-27T00:52:21.028Z,100334.63
2023-02-27T00:55:24.537Z,100340.53
2023-02-27T00:58:28.619Z,100343.47
2023-02-27T01:01:31.214Z,100357.97
2023-02-27T01:04:34.180Z,100348.00
2023-02-27T01:07:37.700Z,100360.50
2023-02-27T01:10:40.502Z,100353.78
2023-02-27T01:13:44.323Z,100364.56
2023-02-27T01:16:47.095Z,100356.22
2023-02-27T01:19:50.580Z,100360.47
2023-02-27T01:22:53.469Z,100355.16
2023-02-27T01:25:56.470Z,100361.97
2023-02-27T01:28:59.216Z,100354.00
2023-02-27T01:32:01.905Z,100351.59
2023-02-27T01:35:05.081Z,100364.34
2023-02-27T01:38:07.922Z,100349.50
2023-02-27T01:41:10.867Z,100361.78
2023-02-27T01:44:14.656Z,100359.09
2023-02-27T01:47:18.273Z,100360.16
2023-02-27T01:50:20.797Z,100356.94
2023-02-27T01:53:26.236Z,100362.78
2023-02-27T01:56:31.507Z,100370.38
2023-02-27T01:59:35.958Z,100368.84
2023-02-27T02:02:42.400Z,100362.69
2023-02-27T02:05:47.202Z,100370.19
2023-02-27T02:08:53.343Z,100386.34
2023-02-27T02:11:57.911Z,100383.66
2023-02-27T02:15:01.003Z,100385.50
2023-02-27T02:18:11.633Z,100391.03
2023-02-27T02:21:29.659Z,100392.81
2023-02-27T02:25:00.201Z,100402.22
2023-02-27T02:28:24.602Z,100410.66
2023-02-27T02:31:44.391Z,100409.56
2023-02-27T02:35:22.824Z,100404.50
2023-02-27T02:38:55.823Z,100404.47
2023-02-27T02:42:21.413Z,100407.97
2023-02-27T02:45:35.511Z,100411.22
2023-02-27T02:48:53.194Z,100417.34
2023-02-27T02:52:07.920Z,100403.53
2023-02-27T02:55:18.461Z,100408.00
2023-02-27T02:58:34.086Z,100407.25
2023-02-27T03:01:44.685Z,100419.16
2023-02-27T03:04:58.024Z,100416.31
2023-02-27T03:08:07.147Z,100418.88
2023-02-27T03:11:09.864Z,100419.63
2023-02-27T03:14:34.740Z,100429.22
2023-02-27T03:18:03.494Z,100427.69
2023-02-27T03:21:13.687Z,100436.28
2023-02-27T03:24:25.873Z,100443.09
2023-02-27T03:27:35.251Z,100442.88
2023-02-27T03:31:08.325Z,100443.69
2023-02-27T03:34:32.971Z,100442.50
2023-02-27T03:37:51.773Z,100454.72
2023-02-27T03:41:03.491Z,100449.63
2023-02-27T03:44:20.066Z,100462.62
2023-02-27T03:47:23.423Z,100462.44
2023-02-27T03:50:25.982Z,100462.44
2023-02-27T03:53:43.830Z,100463.91
2023-02-27T03:56:55.989Z,100466.25
2023-02-27T04:00:00.040Z,100478.69
2023-02-27T04:03:02.778Z,100469.94
2023-02-27T04:06:26.141Z,100471.09
2023-02-27T04:09:50.929Z,100477.06
2023-02-27T04:13:39.899Z,100480.13
2023-02-27T04:17:08.267Z,100476.91
2023-02-27T04:20:39.044Z,100486.19
2023-02-27T04:23:46.321Z,100480.91
2023-02-27T04:27:00.527Z,100483.25
2023-02-27T04:30:24.631Z,100489.13
2023-02-27T04:33:48.233Z,100484.66
2023-02-27T04:37:02.667Z,100495.22
2023-02-27T04:40:19.119Z,100498.41
2023-02-27T04:43:24.432Z,100500.69
2023-02-27T04:46:29.715Z,100498.59
2023-02-27T04:49:46.384Z,100505.28
2023-02-27T04:52:57.317Z,100502.34
2023-02-27T04:56:05.993Z,100505.94
2023-02-27T04:59:20.876Z,100516.56
2023-02-27T05:02:33.089Z,100509.47
2023-02-27T05:05:38.762Z,100507.28
2023-02-27T05:08:58.393Z,100511.47
2023-02-27T05:12:32.410Z,100515.19
2023-02-27T05:15:44.567Z,100526.53
2023-02-27T05:18:48.868Z,100531.59
2023-02-27T05:22:40.891Z,100532.59
2023-02-27T05:25:55.588Z,100537.75
2023-02-27T05:29:11.756Z,100542.22
2023-02-27T05:32:49.142Z,100547.25
2023-02-27T05:40:39.530Z,100555.16
2023-02-27T05:44:20.942Z,100549.00
2023-02-27T05:47:30.757Z,100561.09
2023-02-27T05:50:37.800Z,100563.91
2023-02-27T05:53:44.565Z,100567.56
2023-02-27T05:56:51.316Z,100567.66
2023-02-27T06:00:13.801Z,100571.69
2023-02-27T06:03:17.666Z,100581.84
2023-02-27T06:06:23.680Z,100591.97
2023-02-27T06:09:28.514Z,100589.53
2023-02-27T06:12:30.706Z,100601.34
2023-02-27T06:15:33.866Z,100600.50
2023-02-27T06:18:36.217Z,100611.69
2023-02-27T06:21:39.316Z,100616.97
2023-02-27T06:24:41.856Z,100618.56
2023-02-27T06:27:44.545Z,100624.34
2023-02-27T06:30:47.260Z,100629.50
2023-02-27T06:33:51.225Z,100637.25
2023-02-27T06:36:53.602Z,100644.97
2023-02-27T06:39:57.147Z,100652.72
2023-02-27T06:42:59.759Z,100664.00
2023-02-27T06:46:02.853Z,100667.09
2023-02-27T06:49:05.428Z,100672.81
2023-02-27T06:52:08.100Z,100679.16
2023-02-27T06:55:11.287Z,100684.06
2023-02-27T06:58:14.468Z,100694.66
2023-02-27T07:01:16.892Z,100697.81
2023-02-27T07:04:20.723Z,100697.63
2023-02-27T07:07:35.354Z,100694.44
2023-02-27T07:10:40.263Z,100700.41
2023-02-27T07:13:43.041Z,100700.34
2023-02-27T07:16:54.017Z,100706.00
2023-02-27T07:19:59.170Z,100704.50
2023-02-27T07:23:04.571Z,100714.03
2023-02-27T07:26:06.786Z,100719.13
2023-02-27T07:29:09.820Z,100722.84
2023-02-27T07:32:12.072Z,100720.03
2023-02-27T07:35:15.986Z,100727.25
2023-02-27T07:38:27.035Z,100728.37
2023-02-27T07:41:37.950Z,100730.88
2023-02-27T07:44:41.569Z,100735.75
2023-02-27T07:47:45.463Z,100737.31
2023-02-27T07:50:47.786Z,100738.69
2023-02-27T07:53:50.550Z,100742.03
2023-02-27T07:56:53.211Z,100734.50
2023-02-27T07:59:55.765Z,100748.56
2023-02-27T08:02:58.101Z,100740.38
2023-02-27T08:06:02.440Z,100745.81
2023-02-27T08:09:06.320Z,100750.69
2023-02-27T08:12:09.171Z,100751.59
2023-02-27T08:15:11.932Z,100752.06
2023-02-27T08:18:14.871Z,100764.91
2023-02-27T08:21:17.296Z,100776.41
2023-02-27T08:24:21.709Z,100768.97
2023-02-27T08:27:31.379Z,100781.69
2023-02-27T08:30:34.428Z,100783.41
2023-02-27T08:33:36.977Z,100784.12
2023-02-27T08:36:42.746Z,100787.03
2023-02-27T08:39:45.316Z,100795.25
2023-02-27T08:42:48.374Z,100798.97
2023-02-27T08:45:51.573Z,100803.97
2023-02-27T08:48:56.672Z,100812.87
2023-02-27T08:51:59.320Z,100812.12
2023-02-27T08:55:02.359Z,100807.34
2023-02-27T08:58:04.709Z,100812.38
2023-02-27T09:01:07.395Z,100811.28
2023-02-27T09:04:10.214Z,100811.44
2023-02-27T09:07:13.638Z,100811.91
2023-02-27T09:10:16.310Z,100821.78
2023-02-27T09:13:19.788Z,100816.94
2023-02-27T09:16:22.982Z,100829.25
2023-02-27T09:19:26.492Z,100838.59
2023-02-27T09:22:28.891Z,100831.94
2023-02-27T09:25:34.220Z,100833.69
2023-02-27T09:28:37.553Z,100829.38
2023-02-27T09:31:40.393Z,100829.94
2023-02-27T09:34:42.634Z,100827.50
2023-02-27T09:37:45.298Z,100837.75
2023-02-27T09:40:50.496Z,100830.00
2023-02-27T09:43:55.432Z,100833.25
2023-02-27T09:47:00.529Z,100832.22
2023-02-27T09:50:09.313Z,100836.13
2023-02-27T09:53:22.683Z,100840.75
2023-02-27T09:56:32.398Z,100842.62
2023-02-27T09:59:52.533Z,100847.41
2023-02-27T10:03:22.996Z,100847.50
2023-02-27T10:06:41.305Z,100847.19
2023-02-27T10:10:00.481Z,100847.03
2023-02-27T10:13:14.931Z,100846.28
2023-02-27T10:16:28.756Z,100852.66
2023-02-27T10:19:37.441Z,100848.00
2023-02-27T10:22:45.117Z,100845.75
2023-02-27T10:25:50.872Z,100847.31
2023-02-27T10:28:53.210Z,100850.56
2023-02-27T10:32:13.339Z,100851.28
2023-02-27T10:35:32.814Z,100852.94
2023-02-27T10:38:44.497Z,100848.41
2023-02-27T10:41:47.635Z,100847.25
2023-02-27T10:44:53.673Z,100850.09
2023-02-27T10:47:57.055Z,100839.69
2023-02-27T10:51:26.413Z,100841.66
2023-02-27T10:54:28.919Z,100853.00
2023-02-27T10:57:43.034Z,100852.12
2023-02-27T11:00:52.898Z,100850.16
2023-02-27T11:03:57.180Z,100843.03
2023-02-27T11:07:01.758Z,100846.41
2023-02-27T11:10:23.225Z,100842.78
2023-02-27T11:13:28.411Z,100841.28
2023-02-27T11:16:52.953Z,100838.06
2023-02-27T11:19:56.633Z,100835.97
2023-02-27T11:23:26.155Z,100844.47
2023-02-27T11:26:39.148Z,100854.41
2023-02-27T11:30:22.559Z,100852.84
2023-02-27T11:33:26.918Z,100856.88
2023-02-27T11:37:00.663Z,100859.28
2023-02-27T11:40:09.007Z,100854.31
2023-02-27T11:43:21.762Z,100855.78
2023-02-27T11:46:46.067Z,100854.44
2023-02-27T11:49:51.505Z,100857.84
2023-02-27T11:53:17.825Z,100853.78
2023-02-27T11:56:31.383Z,100850.19
2023-02-27T11:59:47.968Z,100844.97
2023-02-27T12:03:25.185Z,100844.56
2023-02-27T12:06:49.444Z,100838.09
2023-02-27T12:09:57.778Z,100840.72
2023-02-27T12:13:07.170Z,100849.72
2023-02-27T12:16:42.460Z,100836.97
2023-02-27T12:19:50.786Z,100838.56
2023-02-27T12:22:54.772Z,100848.97
2023-02-27T12:26:06.040Z,100847.63
2023-02-27T12:29:49.529Z,100861.56
2023-02-27T12:32:57.807Z,100859.00
2023-02-27T12:36:03.137Z,100867.09
2023-02-27T12:39:06.698Z,100868.88
2023-02-27T12:42:21.296Z,100870.09
2023-02-27T12:45:45.581Z,100875.97
2023-02-27T12:49:22.047Z,100871.37
2023-02-27T12:52:49.676Z,100872.72
2023-02-27T12:56:04.249Z,100875.09
2023-02-27T12:59:30.076Z,100874.16
2023-02-27T13:02:51.062Z,100870.06
2023-02-27T13:05:54.662Z,100871.56
2023-02-27T13:09:04.771Z,100873.66
2023-02-27T13:12:07.815Z,100873.97
2023-02-27T13:15:23.619Z,100883.19
2023-02-27T13:18:39.678Z,100871.69
2023-02-27T13:21:55.328Z,100885.81
2023-02-27T13:25:02.030Z,100883.78
2023-02-27T13:28:15.430Z,100880.34
2023-02-27T13:31:27.419Z,100896.22
2023-02-27T13:34:42.712Z,100896.06
2023-02-27T13:37:54.198Z,100892.66
2023-02-27T13:40:56.668Z,100894.28
2023-02-27T13:44:20.491Z,100899.75
2023-02-27T13:47:43.277Z,100891.09
2023-02-27T13:50:45.915Z,100898.53
2023-02-27T13:53:48.325Z,100895.03
2023-02-27T13:56:59.688Z,100893.31
2023-02-27T14:00:08.988Z,100894.78
2023-02-27T14:03:25.865Z,100895.44
2023-02-27T14:06:29.830Z,100881.69
2023-02-27T14:09:41.437Z,100895.34
2023-02-27T14:12:46.454Z,100888.13
2023-02-27T14:15:52.124Z,100877.19
2023-02-27T14:18:58.526Z,100881.25
2023-02-27T14:22:32.244Z,100880.22
2023-02-27T14:25:39.427Z,100885.31
2023-02-27T14:29:02.468Z,100889.47
2023-02-27T14:32:09.009Z,100879.53
2023-02-27T14:35:16.883Z,100884.34
2023-02-27T14:38:21.528Z,100885.50
2023-02-27T14:41:33.985Z,100891.97
2023-02-27T14:44:41.823Z,100893.00
2023-02-27T14:47:53.754Z,100887.69
2023-02-27T14:50:58.093Z,100906.97
2023-02-27T14:54:04.542Z,100899.31
2023-02-27T14:57:07.994Z,100894.06
2023-02-27T15:00:35.044Z,100895.47
2023-02-27T15:03:47.917Z,100898.47
2023-02-27T15:06:52.474Z,100905.63
2023-02-27T15:09:58.388Z,100909.09
2023-02-27T15:13:02.517Z,100905.13
2023-02-27T15:16:23.576Z,100913.19
2023-02-27T15:19:28.226Z,100919.06
2023-02-27T15:22:39.763Z,100920.06
2023-02-27T15:25:42.371Z,100919.06
2023-02-27T15:28:45.130Z,100931.16
2023-02-27T15:31:47.611Z,100940.66
2023-02-27T15:34:50.738Z,100940.03
2023-02-27T15:37:55.879Z,100941.28
2023-02-27T15:41:00.460Z,100950.78
2023-02-27T15:44:04.411Z,100958.66
2023-02-27T15:47:10.350Z,100957.00
2023-02-27T15:50:15.652Z,100961.16
2023-02-27T15:53:24.600Z,100967.25
2023-02-27T15:56:34.300Z,100970.44
2023-02-27T15:59:41.986Z,100968.06
2023-02-27T16:02:54.170Z,100979.09
2023-02-27T16:05:57.872Z,100981.69
2023-02-27T16:09:20.050Z,100981.81
2023-02-27T16:12:38.045Z,100981.25
2023-02-27T16:15:41.184Z,100986.56
2023-02-27T16:18:46.889Z,100994.56
2023-02-27T16:22:15.265Z,101000.94
2023-02-27T16:25:19.339Z,100992.41
2023-02-27T16:28:21.665Z,101010.59
2023-02-27T16:31:31.050Z,101011.81
2023-02-27T16:34:45.442Z,101018.91
2023-02-27T16:37:50.223Z,101019.56
2023-02-27T16:40:52.728Z,101031.69
2023-02-27T16:43:56.032Z,101037.06
2023-02-27T16:47:02.217Z,101039.53
2023-02-27T16:50:12.461Z,101044.19
2023-02-27T16:53:16.908Z,101043.06
2023-02-27T16:56:32.253Z,101048.97
2023-02-27T16:59:41.144Z,101058.75
2023-02-27T17:02:44.211Z,101061.25
2023-02-27T17:05:48.639Z,101062.12
2023-02-27T17:08:51.533Z,101074.72
2023-02-27T17:11:55.229Z,101083.41
2023-02-27T17:14:57.824Z,101081.00
2023-02-27T17:18:00.445Z,101077.34
2023-02-27T17:21:04.095Z,101071.91
2023-02-27T17:24:06.993Z,101085.19
2023-02-27T17:27:09.690Z,101092.25
2023-02-27T17:30:15.738Z,101090.84
2023-02-27T17:33:18.368Z,101097.16
2023-02-27T17:36:22.353Z,101108.97
2023-02-27T17:39:25.038Z,101103.12
2023-02-27T17:42:27.432Z,101101.41
2023-02-27T17:45:30.135Z,101096.00
2023-02-27T17:48:32.869Z,101110.31
2023-02-27T17:51:35.746Z,101101.25
2023-02-27T17:54:38.416Z,101115.41
2023-02-27T17:57:41.134Z,101118.19
2023-02-27T18:00:43.342Z,101122.66
2023-02-27T18:03:46.591Z,101123.78
2023-02-27T18:06:50.548Z,101126.50
2023-02-27T18:09:53.202Z,101131.84
2023-02-27T18:12:55.468Z,101133.84
2023-02-27T18:15:57.952Z,101131.44
2023-02-27T18:19:03.468Z,101133.97
2023-02-27T18:22:11.912Z,101135.84
2023-02-27T18:25:15.844Z,101138.59
2023-02-27T18:28:19.414Z,101144.78
2023-02-27T18:31:27.855Z,101141.19
2023-02-27T18:34:30.653Z,101152.69
2023-02-27T18:37:33.302Z,101158.25
2023-02-27T18:40:36.039Z,101154.94
2023-02-27T18:43:43.237Z,101161.94
2023-02-27T18:46:46.268Z,101175.97
2023-02-27T18:49:48.590Z,101180.06
2023-02-27T18:52:51.693Z,101186.22
2023-02-27T18:56:00.353Z,101187.94
2023-02-27T18:59:05.186Z,101188.56
2023-02-27T19:02:13.826Z,101203.31
2023-02-27T19:05:16.961Z,101200.78
2023-02-27T19:08:19.276Z,101212.72
2023-02-27T19:11:26.329Z,101219.06
2023-02-27T19:14:28.855Z,101220.59
2023-02-27T19:17:31.453Z,101228.34
2023-02-27T19:20:34.798Z,101226.03
2023-02-27T19:23:38.853Z,101236.41
2023-02-27T19:26:41.448Z,101244.91
2023-02-27T19:29:44.136Z,101250.13
2023-02-27T19:32:46.469Z,101249.38
2023-02-27T19:35:49.740Z,101254.53
2023-02-27T19:38:52.626Z,101259.00
2023-02-27T19:41:56.515Z,101253.78
2023-02-27T19:44:59.092Z,101261.41
2023-02-27T19:48:01.874Z,101247.56
2023-02-27T19:51:07.673Z,101243.13
2023-02-27T19:54:15.460Z,101252.69
2023-02-27T19:57:19.174Z,101261.41
2023-02-27T20:00:23.458Z,101252.59
2023-02-27T20:03:27.877Z,101271.50
2023-02-27T20:06:33.739Z,101284.69
2023-02-27T20:09:36.431Z,101290.00
2023-02-27T20:12:38.666Z,101301.91
2023-02-27T20:15:41.531Z,101307.06
2023-02-27T20:18:44.242Z,101310.06
2023-02-27T20:21:47.751Z,101298.63
2023-02-27T20:24:50.082Z,101305.56
2023-02-27T20:27:52.761Z,101299.16
2023-02-27T20:30:55.486Z,101304.63
2023-02-27T20:34:01.031Z,101310.12
2023-02-27T20:37:03.689Z,101300.66
2023-02-27T20:40:10.318Z,101312.75
2023-02-27T20:43:12.641Z,101315.69
2023-02-27T20:46:18.098Z,101318.34
2023-02-27T20:49:21.980Z,101328.78
2023-02-27T20:52:25.247Z,101338.97
2023-02-27T20:55:27.627Z,101324.22
2023-02-27T20:58:30.756Z,101329.31
2023-02-27T21:01:33.811Z,101320.47
2023-02-27T21:04:44.073Z,101330.19
2023-02-27T21:07:46.815Z,101318.91
2023-02-27T21:10:51.553Z,101340.78
2023-02-27T21:13:55.132Z,101342.44
2023-02-27T21:16:58.565Z,101336.34
2023-02-27T21:20:06.684Z,101340.81
2023-02-27T21:24:07.993Z,101343.59
2023-02-27T21:27:10.370Z,101354.56
2023-02-27T21:30:13.167Z,101365.97
2023-02-27T21:33:15.720Z,101356.53
2023-02-27T21:36:23.853Z,101340.94
2023-02-27T21:39:28.552Z,101335.66
2023-02-27T21:42:31.751Z,101362.66
2023-02-27T21:45:36.695Z,101355.94
2023-02-27T21:48:39.882Z,101364.25
2023-02-27T21:51:42.681Z,101365.94
2023-02-27T21:54:45.665Z,101362.44
2023-02-27T21:57:48.239Z,101359.78
2023-02-27T22:00:50.927Z,101357.28
2023-02-27T22:03:54.281Z,101351.06
2023-02-27T22:06:56.946Z,101350.22
2023-02-27T22:09:59.656Z,101352.75
2023-02-27T22:13:02.424Z,101345.00
2023-02-27T22:16:09.484Z,101337.84
2023-02-27T22:19:19.609Z,101330.09
2023-02-27T22:22:25.836Z,101342.06
2023-02-27T22:25:28.567Z,101338.81
2023-02-27T22:28:32.894Z,101335.25
2023-02-27T22:31:37.839Z,101333.34
2023-02-27T22:34:40.506Z,101329.84
2023-02-27T22:37:43.345Z,101334.31
2023-02-27T22:40:46.251Z,101340.25
2023-02-27T22:43:48.500Z,101341.06
2023-02-27T22:46:51.312Z,101347.66
2023-02-27T22:49:54.007Z,101341.53
2023-02-27T22:52:56.881Z,101346.88
2023-02-27T22:55:59.652Z,101349.44
2023-02-27T22:59:03.085Z,101354.75
2023-02-27T23:02:06.287Z,101351.91
2023-02-27T23:05:09.750Z,101342.25
2023-02-27T23:08:12.094Z,101343.13
2023-02-27T23:11:16.040Z,101338.75
2023-02-27T23:14:19.199Z,101345.13
2023-02-27T23:17:21.997Z,101346.84
2023-02-27T23:20:24.234Z,101349.59
2023-02-27T23:23:28.281Z,101345.91
2023-02-27T23:26:30.900Z,101351.16
2023-02-27T23:29:33.422Z,101353.72
2023-02-27T23:32:43.420Z,101348.06
2023-02-27T23:35:46.567Z,101355.69
2023-02-27T23:38:49.106Z,101355.69
2023-02-27T23:41:51.717Z,101358.50
2023-02-27T23:45:32.744Z,101362.56
2023-02-27T23:48:36.222Z,101358.97
2023-02-27T23:51:38.970Z,101359.09
2023-02-27T23:54:41.558Z,101367.00
2023-02-27T23:57:44.764Z,101368.75
